sensor_id;sensor_type;location;lat;lon;timestamp;P1;durP1;ratioP1;P2;durP2;ratioP2
69203;SDS011;56317;27.658;85.326;2023-04-03T03:08:33;68.88;;;43.60;;
69203;SDS011;56317;27.658;85.326;2023-04-03T03:11:02;72.50;;;44.58;;
69203;SDS011;56317;27.658;85.326;2023-04-03T03:13:30;71.63;;;45.53;;
69203;SDS011;56317;27.658;85.326;2023-04-03T03:15:58;74.72;;;45.60;;
69203;SDS011;56317;27.658;85.326;2023-04-03T03:18:26;70.18;;;44.42;;
69203;SDS011;56317;27.658;85.326;2023-04-03T03:20:57;73.10;;;43.03;;
69203;SDS011;56317;27.658;85.326;2023-04-03T03:23:26;63.72;;;41.65;;
69203;SDS011;56317;27.658;85.326;2023-04-03T03:25:55;65.60;;;42.30;;
69203;SDS011;56317;27.658;85.326;2023-04-03T03:28:23;65.43;;;41.28;;
69203;SDS011;56317;27.658;85.326;2023-04-03T03:30:51;68.70;;;41.83;;
69203;SDS011;56317;27.658;85.326;2023-04-03T03:33:19;67.18;;;42.78;;
69203;SDS011;56317;27.658;85.326;2023-04-03T03:35:46;71.60;;;43.33;;
69203;SDS011;56317;27.658;85.326;2023-04-03T03:38:13;71.93;;;44.22;;
69203;SDS011;56317;27.658;85.326;2023-04-03T03:40:40;69.28;;;43.17;;
69203;SDS011;56317;27.658;85.326;2023-04-03T03:43:08;67.88;;;41.15;;
69203;SDS011;56317;27.658;85.326;2023-04-03T03:45:35;57.63;;;36.13;;
69203;SDS011;56317;27.658;85.326;2023-04-03T03:48:03;50.10;;;31.98;;
69203;SDS011;56317;27.658;85.326;2023-04-03T03:50:30;48.13;;;30.30;;
69203;SDS011;56317;27.658;85.326;2023-04-03T03:52:57;41.83;;;27.50;;
69203;SDS011;56317;27.658;85.326;2023-04-03T03:55:25;52.00;;;31.90;;
69203;SDS011;56317;27.658;85.326;2023-04-03T03:57:52;45.47;;;28.70;;
69203;SDS011;56317;27.658;85.326;2023-04-03T04:00:20;43.88;;;27.13;;
69203;SDS011;56317;27.658;85.326;2023-04-03T04:02:47;41.65;;;26.75;;
69203;SDS011;56317;27.658;85.326;2023-04-03T04:05:14;41.70;;;26.70;;
69203;SDS011;56317;27.658;85.326;2023-04-03T04:07:42;39.80;;;26.92;;
69203;SDS011;56317;27.658;85.326;2023-04-03T04:10:09;44.80;;;27.08;;
69203;SDS011;56317;27.658;85.326;2023-04-03T04:12:36;38.28;;;25.65;;
69203;SDS011;56317;27.658;85.326;2023-04-03T04:15:04;41.17;;;26.65;;
69203;SDS011;56317;27.658;85.326;2023-04-03T04:17:31;34.65;;;24.20;;
69203;SDS011;56317;27.658;85.326;2023-04-03T04:20:01;44.40;;;25.98;;
69203;SDS011;56317;27.658;85.326;2023-04-03T04:22:30;38.60;;;25.70;;
69203;SDS011;56317;27.658;85.326;2023-04-03T04:24:57;39.42;;;26.42;;
69203;SDS011;56317;27.658;85.326;2023-04-03T04:27:28;38.38;;;24.02;;
69203;SDS011;56317;27.658;85.326;2023-04-03T04:29:55;31.05;;;21.38;;
69203;SDS011;56317;27.658;85.326;2023-04-03T04:32:23;29.70;;;20.60;;
69203;SDS011;56317;27.658;85.326;2023-04-03T04:34:50;34.47;;;22.83;;
69203;SDS011;56317;27.658;85.326;2023-04-03T04:37:17;36.67;;;22.48;;
69203;SDS011;56317;27.658;85.326;2023-04-03T04:39:45;35.58;;;21.65;;
69203;SDS011;56317;27.658;85.326;2023-04-03T04:42:12;31.75;;;21.95;;
69203;SDS011;56317;27.658;85.326;2023-04-03T04:44:39;33.92;;;21.63;;
69203;SDS011;56317;27.658;85.326;2023-04-03T04:47:06;30.30;;;19.67;;
69203;SDS011;56317;27.658;85.326;2023-04-03T04:49:34;33.10;;;20.75;;
69203;SDS011;56317;27.658;85.326;2023-04-03T04:52:06;32.05;;;20.08;;
69203;SDS011;56317;27.658;85.326;2023-04-03T04:54:37;31.17;;;20.45;;
69203;SDS011;56317;27.658;85.326;2023-04-03T04:57:04;33.65;;;19.65;;
69203;SDS011;56317;27.658;85.326;2023-04-03T04:59:41;31.60;;;16.42;;
69203;SDS011;56317;27.658;85.326;2023-04-03T05:02:08;25.40;;;17.63;;
69203;SDS011;56317;27.658;85.326;2023-04-03T05:04:35;23.55;;;16.45;;
69203;SDS011;56317;27.658;85.326;2023-04-03T05:07:03;20.77;;;14.50;;
69203;SDS011;56317;27.658;85.326;2023-04-03T05:09:30;24.30;;;14.10;;
69203;SDS011;56317;27.658;85.326;2023-04-03T05:11:58;18.80;;;12.77;;
69203;SDS011;56317;27.658;85.326;2023-04-03T05:14:25;17.80;;;13.25;;
69203;SDS011;56317;27.658;85.326;2023-04-03T05:16:55;23.63;;;11.25;;
69203;SDS011;56317;27.658;85.326;2023-04-03T05:19:23;20.75;;;11.90;;
69203;SDS011;56317;27.658;85.326;2023-04-03T05:21:50;22.58;;;12.55;;
69203;SDS011;56317;27.658;85.326;2023-04-03T05:24:17;24.80;;;11.57;;
69203;SDS011;56317;27.658;85.326;2023-04-03T05:26:45;20.15;;;10.52;;
69203;SDS011;56317;27.658;85.326;2023-04-03T05:29:12;17.05;;;12.07;;
69203;SDS011;56317;27.658;85.326;2023-04-03T05:31:40;15.40;;;11.98;;
69203;SDS011;56317;27.658;85.326;2023-04-03T05:34:07;22.77;;;11.00;;
69203;SDS011;56317;27.658;85.326;2023-04-03T05:36:34;17.95;;;11.60;;
69203;SDS011;56317;27.658;85.326;2023-04-03T05:39:02;19.40;;;11.23;;
69203;SDS011;56317;27.658;85.326;2023-04-03T05:41:30;20.10;;;13.10;;
69203;SDS011;56317;27.658;85.326;2023-04-03T05:44:01;14.70;;;10.07;;
69203;SDS011;56317;27.658;85.326;2023-04-03T05:46:28;16.13;;;10.10;;
69203;SDS011;56317;27.658;85.326;2023-04-03T05:48:55;18.35;;;9.27;;
69203;SDS011;56317;27.658;85.326;2023-04-03T05:51:33;14.95;;;8.57;;
69203;SDS011;56317;27.658;85.326;2023-04-03T05:54:23;17.27;;;8.57;;
69203;SDS011;56317;27.658;85.326;2023-04-03T05:56:52;23.52;;;7.78;;
69203;SDS011;56317;27.658;85.326;2023-04-03T05:59:21;11.32;;;7.40;;
69203;SDS011;56317;27.658;85.326;2023-04-03T06:01:48;12.10;;;6.80;;
69203;SDS011;56317;27.658;85.326;2023-04-03T06:04:16;9.00;;;6.32;;
69203;SDS011;56317;27.658;85.326;2023-04-03T06:06:45;14.55;;;6.80;;
69203;SDS011;56317;27.658;85.326;2023-04-03T06:09:15;11.73;;;7.63;;
69203;SDS011;56317;27.658;85.326;2023-04-03T06:11:43;12.35;;;7.70;;
69203;SDS011;56317;27.658;85.326;2023-04-03T06:14:10;10.85;;;7.88;;
69203;SDS011;56317;27.658;85.326;2023-04-03T06:16:38;17.23;;;9.90;;
69203;SDS011;56317;27.658;85.326;2023-04-03T06:19:09;19.67;;;10.23;;
69203;SDS011;56317;27.658;85.326;2023-04-03T06:21:37;18.35;;;10.02;;
69203;SDS011;56317;27.658;85.326;2023-04-03T06:24:05;17.85;;;9.77;;
69203;SDS011;56317;27.658;85.326;2023-04-03T06:26:34;22.65;;;10.57;;
69203;SDS011;56317;27.658;85.326;2023-04-03T06:29:01;15.20;;;9.32;;
69203;SDS011;56317;27.658;85.326;2023-04-03T06:31:29;12.93;;;9.77;;
69203;SDS011;56317;27.658;85.326;2023-04-03T06:33:59;18.73;;;10.65;;
69203;SDS011;56317;27.658;85.326;2023-04-03T06:36:31;15.80;;;9.80;;
69203;SDS011;56317;27.658;85.326;2023-04-03T06:38:59;15.25;;;9.25;;
69203;SDS011;56317;27.658;85.326;2023-04-03T06:41:32;13.10;;;7.93;;
69203;SDS011;56317;27.658;85.326;2023-04-03T06:44:00;12.27;;;9.95;;
69203;SDS011;56317;27.658;85.326;2023-04-03T06:46:28;15.80;;;9.38;;
69203;SDS011;56317;27.658;85.326;2023-04-03T06:48:56;13.65;;;7.50;;
69203;SDS011;56317;27.658;85.326;2023-04-03T06:51:24;13.27;;;7.93;;
69203;SDS011;56317;27.658;85.326;2023-04-03T06:53:57;19.90;;;12.32;;
69203;SDS011;56317;27.658;85.326;2023-04-03T06:56:25;10.50;;;6.93;;
69203;SDS011;56317;27.658;85.326;2023-04-03T06:58:54;11.27;;;7.13;;
69203;SDS011;56317;27.658;85.326;2023-04-03T07:01:23;9.63;;;6.17;;
69203;SDS011;56317;27.658;85.326;2023-04-03T07:03:53;13.27;;;6.88;;
69203;SDS011;56317;27.658;85.326;2023-04-03T07:06:21;10.90;;;6.25;;
69203;SDS011;56317;27.658;85.326;2023-04-03T07:08:55;10.50;;;5.85;;
69203;SDS011;56317;27.658;85.326;2023-04-03T07:11:22;10.07;;;5.97;;
69203;SDS011;56317;27.658;85.326;2023-04-03T07:13:50;11.57;;;6.82;;
69203;SDS011;56317;27.658;85.326;2023-04-03T07:18:48;10.00;;;6.00;;
69203;SDS011;56317;27.658;85.326;2023-04-03T07:21:15;18.70;;;8.18;;
69203;SDS011;56317;27.658;85.326;2023-04-03T07:23:42;14.80;;;7.15;;
69203;SDS011;56317;27.658;85.326;2023-04-03T07:26:10;12.50;;;7.57;;
69203;SDS011;56317;27.658;85.326;2023-04-03T07:28:37;12.88;;;7.93;;
69203;SDS011;56317;27.658;85.326;2023-04-03T07:31:07;12.63;;;7.97;;
69203;SDS011;56317;27.658;85.326;2023-04-03T07:33:39;15.60;;;7.93;;
69203;SDS011;56317;27.658;85.326;2023-04-03T07:36:07;19.58;;;9.35;;
69203;SDS011;56317;27.658;85.326;2023-04-03T07:38:36;16.38;;;9.73;;
69203;SDS011;56317;27.658;85.326;2023-04-03T07:41:04;15.27;;;8.90;;
69203;SDS011;56317;27.658;85.326;2023-04-03T07:43:31;14.95;;;8.32;;
69203;SDS011;56317;27.658;85.326;2023-04-03T07:46:00;15.07;;;8.82;;
69203;SDS011;56317;27.658;85.326;2023-04-03T07:48:27;11.93;;;6.70;;
69203;SDS011;56317;27.658;85.326;2023-04-03T07:50:58;11.32;;;7.30;;
69203;SDS011;56317;27.658;85.326;2023-04-03T07:53:27;12.63;;;7.43;;
69203;SDS011;56317;27.658;85.326;2023-04-03T07:55:56;13.55;;;8.10;;
69203;SDS011;56317;27.658;85.326;2023-04-03T07:58:24;10.60;;;7.60;;
69203;SDS011;56317;27.658;85.326;2023-04-03T08:00:52;18.42;;;9.82;;
69203;SDS011;56317;27.658;85.326;2023-04-03T08:03:19;17.52;;;7.95;;
69203;SDS011;56317;27.658;85.326;2023-04-03T08:05:48;12.45;;;7.70;;
69203;SDS011;56317;27.658;85.326;2023-04-03T08:08:17;14.35;;;7.22;;
69203;SDS011;56317;27.658;85.326;2023-04-03T08:10:53;18.95;;;9.15;;
69203;SDS011;56317;27.658;85.326;2023-04-03T08:13:20;15.68;;;7.97;;
69203;SDS011;56317;27.658;85.326;2023-04-03T08:15:48;15.95;;;9.00;;
69203;SDS011;56317;27.658;85.326;2023-04-03T08:18:16;16.15;;;9.43;;
69203;SDS011;56317;27.658;85.326;2023-04-03T08:20:47;13.10;;;8.43;;
69203;SDS011;56317;27.658;85.326;2023-04-03T08:23:14;15.90;;;8.63;;
69203;SDS011;56317;27.658;85.326;2023-04-03T08:25:42;11.48;;;7.65;;
69203;SDS011;56317;27.658;85.326;2023-04-03T08:28:11;18.13;;;9.60;;
69203;SDS011;56317;27.658;85.326;2023-04-03T08:30:40;33.92;;;16.70;;
69203;SDS011;56317;27.658;85.326;2023-04-03T08:33:08;35.92;;;16.85;;
69203;SDS011;56317;27.658;85.326;2023-04-03T08:35:40;39.42;;;15.85;;
69203;SDS011;56317;27.658;85.326;2023-04-03T08:38:08;40.47;;;16.33;;
69203;SDS011;56317;27.658;85.326;2023-04-03T08:40:36;27.38;;;14.55;;
69203;SDS011;56317;27.658;85.326;2023-04-03T08:48:27;34.83;;;14.13;;
69203;SDS011;56317;27.658;85.326;2023-04-03T08:51:09;25.77;;;12.95;;
69203;SDS011;56317;27.658;85.326;2023-04-03T08:53:44;27.75;;;13.85;;
69203;SDS011;56317;27.658;85.326;2023-04-03T08:56:22;24.20;;;12.40;;
69203;SDS011;56317;27.658;85.326;2023-04-03T08:59:00;24.05;;;11.13;;
69203;SDS011;56317;27.658;85.326;2023-04-03T09:01:39;16.65;;;9.90;;
69203;SDS011;56317;27.658;85.326;2023-04-03T09:04:14;13.85;;;9.45;;
69203;SDS011;56317;27.658;85.326;2023-04-03T09:06:44;22.77;;;10.40;;
69203;SDS011;56317;27.658;85.326;2023-04-03T09:09:27;21.42;;;10.20;;
69203;SDS011;56317;27.658;85.326;2023-04-03T09:12:02;19.63;;;10.15;;
69203;SDS011;56317;27.658;85.326;2023-04-03T09:14:50;14.55;;;8.93;;
69203;SDS011;56317;27.658;85.326;2023-04-03T09:23:51;20.27;;;10.52;;
69203;SDS011;56317;27.658;85.326;2023-04-03T09:26:23;24.40;;;10.57;;
69203;SDS011;56317;27.658;85.326;2023-04-03T09:29:05;16.08;;;9.93;;
69203;SDS011;56317;27.658;85.326;2023-04-03T09:31:38;16.05;;;9.95;;
69203;SDS011;56317;27.658;85.326;2023-04-03T09:34:26;13.20;;;9.43;;
69203;SDS011;56317;27.658;85.326;2023-04-03T09:37:15;17.42;;;10.63;;
69203;SDS011;56317;27.658;85.326;2023-04-03T09:40:02;23.08;;;12.50;;
69203;SDS011;56317;27.658;85.326;2023-04-03T09:42:31;23.08;;;11.73;;
69203;SDS011;56317;27.658;85.326;2023-04-03T09:45:03;23.30;;;13.25;;
69203;SDS011;56317;27.658;85.326;2023-04-03T09:47:32;31.10;;;13.40;;
69203;SDS011;56317;27.658;85.326;2023-04-03T09:52:49;21.13;;;11.38;;
69203;SDS011;56317;27.658;85.326;2023-04-03T09:55:21;26.02;;;11.70;;
69203;SDS011;56317;27.658;85.326;2023-04-03T09:57:59;20.38;;;12.63;;
69203;SDS011;56317;27.658;85.326;2023-04-03T10:00:33;26.80;;;14.65;;
69203;SDS011;56317;27.658;85.326;2023-04-03T10:03:02;21.05;;;12.30;;
69203;SDS011;56317;27.658;85.326;2023-04-03T10:05:34;28.35;;;15.82;;
69203;SDS011;56317;27.658;85.326;2023-04-03T10:08:11;25.58;;;13.90;;
69203;SDS011;56317;27.658;85.326;2023-04-03T10:10:45;26.15;;;15.35;;
69203;SDS011;56317;27.658;85.326;2023-04-03T10:13:15;23.00;;;15.93;;
69203;SDS011;56317;27.658;85.326;2023-04-03T10:16:00;22.15;;;13.63;;
69203;SDS011;56317;27.658;85.326;2023-04-03T10:27:31;25.77;;;13.45;;
69203;SDS011;56317;27.658;85.326;2023-04-03T10:30:17;21.92;;;12.75;;
69203;SDS011;56317;27.658;85.326;2023-04-03T10:38:24;21.65;;;13.48;;
69203;SDS011;56317;27.658;85.326;2023-04-03T10:46:44;16.05;;;11.80;;
69203;SDS011;56317;27.658;85.326;2023-04-03T10:52:02;20.08;;;13.18;;
69203;SDS011;56317;27.658;85.326;2023-04-03T10:57:33;26.50;;;12.73;;
69203;SDS011;56317;27.658;85.326;2023-04-03T11:00:03;24.45;;;14.10;;
69203;SDS011;56317;27.658;85.326;2023-04-03T11:02:49;17.75;;;12.73;;
69203;SDS011;56317;27.658;85.326;2023-04-03T11:08:48;21.73;;;14.10;;
69203;SDS011;56317;27.658;85.326;2023-04-03T11:11:06;24.83;;;14.60;;
69203;SDS011;56317;27.658;85.326;2023-04-03T11:13:42;22.90;;;16.23;;
69203;SDS011;56317;27.658;85.326;2023-04-03T11:16:24;31.67;;;19.00;;
69203;SDS011;56317;27.658;85.326;2023-04-03T11:21:37;29.73;;;19.05;;
69203;SDS011;56317;27.658;85.326;2023-04-03T11:24:29;29.10;;;18.20;;
69203;SDS011;56317;27.658;85.326;2023-04-03T11:27:00;31.20;;;19.15;;
69203;SDS011;56317;27.658;85.326;2023-04-03T11:35:21;33.20;;;22.20;;
69203;SDS011;56317;27.658;85.326;2023-04-03T11:37:50;32.22;;;24.23;;
69203;SDS011;56317;27.658;85.326;2023-04-03T11:40:24;39.80;;;25.70;;
69203;SDS011;56317;27.658;85.326;2023-04-03T11:43:02;43.38;;;25.83;;
69203;SDS011;56317;27.658;85.326;2023-04-03T11:45:50;41.38;;;25.77;;
69203;SDS011;56317;27.658;85.326;2023-04-03T11:50:54;35.33;;;23.88;;
69203;SDS011;56317;27.658;85.326;2023-04-03T11:53:26;47.75;;;29.13;;
69203;SDS011;56317;27.658;85.326;2023-04-03T11:56:02;45.25;;;30.30;;
69203;SDS011;56317;27.658;85.326;2023-04-03T12:01:56;47.35;;;32.08;;
69203;SDS011;56317;27.658;85.326;2023-04-03T12:04:24;53.15;;;34.47;;
69203;SDS011;56317;27.658;85.326;2023-04-03T12:06:57;48.05;;;33.65;;
69203;SDS011;56317;27.658;85.326;2023-04-03T12:09:29;50.28;;;33.40;;
69203;SDS011;56317;27.658;85.326;2023-04-03T12:12:28;57.00;;;34.20;;
69203;SDS011;56317;27.658;85.326;2023-04-03T12:15:17;60.70;;;34.83;;
69203;SDS011;56317;27.658;85.326;2023-04-03T12:17:46;60.33;;;36.40;;
69203;SDS011;56317;27.658;85.326;2023-04-03T12:25:59;63.60;;;38.88;;
69203;SDS011;56317;27.658;85.326;2023-04-03T12:28:35;67.35;;;38.83;;
69203;SDS011;56317;27.658;85.326;2023-04-03T12:31:05;58.60;;;39.22;;
69203;SDS011;56317;27.658;85.326;2023-04-03T12:36:54;67.70;;;40.58;;
69203;SDS011;56317;27.658;85.326;2023-04-03T12:42:24;55.72;;;37.38;;
69203;SDS011;56317;27.658;85.326;2023-04-03T12:47:40;71.70;;;41.15;;
69203;SDS011;56317;27.658;85.326;2023-04-03T12:55:55;62.60;;;43.00;;
69203;SDS011;56317;27.658;85.326;2023-04-03T12:58:24;72.10;;;44.97;;
69203;SDS011;56317;27.658;85.326;2023-04-03T13:01:26;62.83;;;42.30;;
69203;SDS011;56317;27.658;85.326;2023-04-03T13:03:53;71.45;;;43.63;;
69203;SDS011;56317;27.658;85.326;2023-04-03T13:09:00;74.82;;;44.60;;
69203;SDS011;56317;27.658;85.326;2023-04-03T13:11:33;58.85;;;43.17;;
69203;SDS011;56317;27.658;85.326;2023-04-03T13:14:05;73.32;;;49.35;;
69203;SDS011;56317;27.658;85.326;2023-04-03T13:16:42;71.53;;;47.83;;
69203;SDS011;56317;27.658;85.326;2023-04-03T13:19:51;75.35;;;50.95;;
69203;SDS011;56317;27.658;85.326;2023-04-03T13:24:54;83.55;;;50.58;;
69203;SDS011;56317;27.658;85.326;2023-04-03T13:27:24;83.88;;;50.13;;
69203;SDS011;56317;27.658;85.326;2023-04-03T13:29:52;75.18;;;48.30;;
69203;SDS011;56317;27.658;85.326;2023-04-03T13:32:23;71.63;;;48.55;;
69203;SDS011;56317;27.658;85.326;2023-04-03T13:34:52;73.88;;;48.53;;
69203;SDS011;56317;27.658;85.326;2023-04-03T13:42:29;81.93;;;50.03;;
69203;SDS011;56317;27.658;85.326;2023-04-03T13:45:16;89.28;;;49.80;;
69203;SDS011;56317;27.658;85.326;2023-04-03T13:47:50;72.18;;;49.63;;
69203;SDS011;56317;27.658;85.326;2023-04-03T13:50:21;79.43;;;49.65;;
69203;SDS011;56317;27.658;85.326;2023-04-03T13:53:03;86.90;;;50.78;;
69203;SDS011;56317;27.658;85.326;2023-04-03T13:55:56;71.43;;;49.13;;
69203;SDS011;56317;27.658;85.326;2023-04-03T13:58:32;84.82;;;49.63;;
69203;SDS011;56317;27.658;85.326;2023-04-03T14:01:14;85.97;;;53.05;;
69203;SDS011;56317;27.658;85.326;2023-04-03T14:06:44;90.60;;;54.28;;
69203;SDS011;56317;27.658;85.326;2023-04-03T14:09:12;93.28;;;53.92;;
69203;SDS011;56317;27.658;85.326;2023-04-03T14:11:40;67.95;;;44.78;;
69203;SDS011;56317;27.658;85.326;2023-04-03T14:14:13;77.93;;;46.67;;
69203;SDS011;56317;27.658;85.326;2023-04-03T14:16:44;71.35;;;43.17;;
69203;SDS011;56317;27.658;85.326;2023-04-03T14:19:17;82.90;;;47.20;;
69203;SDS011;56317;27.658;85.326;2023-04-03T14:21:56;74.20;;;48.40;;
69203;SDS011;56317;27.658;85.326;2023-04-03T14:24:24;75.05;;;48.92;;
69203;SDS011;56317;27.658;85.326;2023-04-03T14:26:53;81.43;;;48.08;;
69203;SDS011;56317;27.658;85.326;2023-04-03T14:29:21;88.40;;;52.88;;
69203;SDS011;56317;27.658;85.326;2023-04-03T14:31:49;118.38;;;59.58;;
69203;SDS011;56317;27.658;85.326;2023-04-03T14:34:20;90.00;;;53.55;;
69203;SDS011;56317;27.658;85.326;2023-04-03T14:36:47;87.45;;;53.80;;
69203;SDS011;56317;27.658;85.326;2023-04-03T14:39:16;88.10;;;52.88;;
69203;SDS011;56317;27.658;85.326;2023-04-03T14:41:44;95.07;;;51.92;;
69203;SDS011;56317;27.658;85.326;2023-04-03T14:44:15;109.00;;;53.70;;
69203;SDS011;56317;27.658;85.326;2023-04-03T14:46:43;93.82;;;48.00;;
69203;SDS011;56317;27.658;85.326;2023-04-03T14:49:14;111.10;;;51.50;;
69203;SDS011;56317;27.658;85.326;2023-04-03T14:51:46;102.13;;;54.55;;
69203;SDS011;56317;27.658;85.326;2023-04-03T14:54:17;85.57;;;55.58;;
69203;SDS011;56317;27.658;85.326;2023-04-03T14:56:51;89.45;;;54.33;;
69203;SDS011;56317;27.658;85.326;2023-04-03T14:59:18;83.43;;;52.35;;
69203;SDS011;56317;27.658;85.326;2023-04-03T15:01:47;100.55;;;56.10;;
69203;SDS011;56317;27.658;85.326;2023-04-03T15:04:15;95.43;;;58.35;;
69203;SDS011;56317;27.658;85.326;2023-04-03T15:06:44;101.13;;;57.85;;
69203;SDS011;56317;27.658;85.326;2023-04-03T15:09:25;109.28;;;60.45;;
69203;SDS011;56317;27.658;85.326;2023-04-03T15:11:54;97.70;;;60.80;;
69203;SDS011;56317;27.658;85.326;2023-04-03T15:14:24;127.20;;;63.67;;
69203;SDS011;56317;27.658;85.326;2023-04-03T15:16:51;98.63;;;57.80;;
69203;SDS011;56317;27.658;85.326;2023-04-03T15:19:19;110.05;;;59.47;;
69203;SDS011;56317;27.658;85.326;2023-04-03T15:21:46;111.43;;;59.17;;
69203;SDS011;56317;27.658;85.326;2023-04-03T15:24:13;92.20;;;55.67;;
69203;SDS011;56317;27.658;85.326;2023-04-03T15:26:40;80.70;;;52.92;;
69203;SDS011;56317;27.658;85.326;2023-04-03T15:29:11;85.45;;;51.60;;
69203;SDS011;56317;27.658;85.326;2023-04-03T15:31:38;75.72;;;50.78;;
69203;SDS011;56317;27.658;85.326;2023-04-03T15:34:05;100.50;;;54.85;;
69203;SDS011;56317;27.658;85.326;2023-04-03T15:36:32;88.25;;;52.88;;
69203;SDS011;56317;27.658;85.326;2023-04-03T15:39:00;104.32;;;55.33;;
69203;SDS011;56317;27.658;85.326;2023-04-03T15:41:27;102.70;;;57.53;;
69203;SDS011;56317;27.658;85.326;2023-04-03T15:43:54;147.88;;;61.72;;
69203;SDS011;56317;27.658;85.326;2023-04-03T15:46:21;133.20;;;61.78;;
69203;SDS011;56317;27.658;85.326;2023-04-03T15:48:49;121.35;;;60.97;;
69203;SDS011;56317;27.658;85.326;2023-04-03T15:51:16;116.72;;;59.72;;
69203;SDS011;56317;27.658;85.326;2023-04-03T15:53:43;111.88;;;60.95;;
69203;SDS011;56317;27.658;85.326;2023-04-03T15:56:10;119.20;;;63.00;;
69203;SDS011;56317;27.658;85.326;2023-04-03T15:58:38;105.95;;;60.60;;
69203;SDS011;56317;27.658;85.326;2023-04-03T16:01:05;99.55;;;60.67;;
69203;SDS011;56317;27.658;85.326;2023-04-03T16:03:35;105.07;;;65.45;;
69203;SDS011;56317;27.658;85.326;2023-04-03T16:06:04;107.90;;;65.30;;
69203;SDS011;56317;27.658;85.326;2023-04-03T16:08:31;117.75;;;65.38;;
69203;SDS011;56317;27.658;85.326;2023-04-03T16:10:58;128.43;;;68.70;;
69203;SDS011;56317;27.658;85.326;2023-04-03T16:13:26;109.68;;;67.25;;
69203;SDS011;56317;27.658;85.326;2023-04-03T16:15:53;116.40;;;65.53;;
69203;SDS011;56317;27.658;85.326;2023-04-03T16:18:21;129.85;;;69.28;;
69203;SDS011;56317;27.658;85.326;2023-04-03T16:20:49;103.50;;;64.68;;
69203;SDS011;56317;27.658;85.326;2023-04-03T16:23:16;122.32;;;67.45;;
69203;SDS011;56317;27.658;85.326;2023-04-03T16:25:44;124.35;;;65.65;;
69203;SDS011;56317;27.658;85.326;2023-04-03T16:28:13;115.50;;;70.82;;
69203;SDS011;56317;27.658;85.326;2023-04-03T16:30:40;126.07;;;66.97;;
69203;SDS011;56317;27.658;85.326;2023-04-03T16:33:08;114.82;;;66.95;;
69203;SDS011;56317;27.658;85.326;2023-04-03T16:35:36;115.90;;;67.57;;
69203;SDS011;56317;27.658;85.326;2023-04-03T16:38:04;104.53;;;64.10;;
69203;SDS011;56317;27.658;85.326;2023-04-03T16:40:31;123.30;;;65.53;;
69203;SDS011;56317;27.658;85.326;2023-04-03T16:42:59;110.78;;;65.10;;
69203;SDS011;56317;27.658;85.326;2023-04-03T16:45:28;105.00;;;65.65;;
69203;SDS011;56317;27.658;85.326;2023-04-03T16:47:55;115.60;;;66.13;;
69203;SDS011;56317;27.658;85.326;2023-04-03T16:50:22;114.55;;;67.32;;
69203;SDS011;56317;27.658;85.326;2023-04-03T16:52:50;136.73;;;71.18;;
69203;SDS011;56317;27.658;85.326;2023-04-03T16:55:17;136.25;;;74.05;;
69203;SDS011;56317;27.658;85.326;2023-04-03T16:57:46;147.77;;;74.82;;
69203;SDS011;56317;27.658;85.326;2023-04-03T17:00:13;133.48;;;72.70;;
69203;SDS011;56317;27.658;85.326;2023-04-03T17:02:41;177.63;;;78.18;;
69203;SDS011;56317;27.658;85.326;2023-04-03T17:05:09;127.80;;;70.70;;
69203;SDS011;56317;27.658;85.326;2023-04-03T17:07:39;127.20;;;70.20;;
69203;SDS011;56317;27.658;85.326;2023-04-03T17:10:06;115.40;;;70.07;;
69203;SDS011;56317;27.658;85.326;2023-04-03T17:12:34;129.55;;;68.97;;
69203;SDS011;56317;27.658;85.326;2023-04-03T17:15:01;124.90;;;71.80;;
69203;SDS011;56317;27.658;85.326;2023-04-03T17:17:29;133.00;;;68.43;;
69203;SDS011;56317;27.658;85.326;2023-04-03T17:19:56;120.05;;;71.25;;
69203;SDS011;56317;27.658;85.326;2023-04-03T17:22:24;121.85;;;70.15;;
69203;SDS011;56317;27.658;85.326;2023-04-03T17:24:51;132.50;;;67.57;;
69203;SDS011;56317;27.658;85.326;2023-04-03T17:27:18;136.35;;;68.28;;
69203;SDS011;56317;27.658;85.326;2023-04-03T17:29:46;128.88;;;65.80;;
69203;SDS011;56317;27.658;85.326;2023-04-03T17:32:13;122.28;;;66.88;;
69203;SDS011;56317;27.658;85.326;2023-04-03T17:34:40;123.03;;;65.38;;
69203;SDS011;56317;27.658;85.326;2023-04-03T17:37:08;121.00;;;60.05;;
69203;SDS011;56317;27.658;85.326;2023-04-03T17:39:35;118.18;;;59.92;;
69203;SDS011;56317;27.658;85.326;2023-04-03T17:42:02;121.88;;;60.42;;
69203;SDS011;56317;27.658;85.326;2023-04-03T17:44:30;110.45;;;60.35;;
69203;SDS011;56317;27.658;85.326;2023-04-03T17:46:57;115.88;;;61.65;;
69203;SDS011;56317;27.658;85.326;2023-04-03T17:49:25;113.00;;;63.35;;
69203;SDS011;56317;27.658;85.326;2023-04-03T17:51:52;121.40;;;63.50;;
69203;SDS011;56317;27.658;85.326;2023-04-03T17:54:20;115.05;;;64.82;;
69203;SDS011;56317;27.658;85.326;2023-04-03T17:56:47;119.03;;;65.40;;
69203;SDS011;56317;27.658;85.326;2023-04-03T17:59:15;123.22;;;66.20;;
69203;SDS011;56317;27.658;85.326;2023-04-03T18:01:44;125.80;;;65.60;;
69203;SDS011;56317;27.658;85.326;2023-04-03T18:04:13;120.47;;;67.13;;
69203;SDS011;56317;27.658;85.326;2023-04-03T18:06:44;129.35;;;68.45;;
69203;SDS011;56317;27.658;85.326;2023-04-03T18:09:14;130.07;;;68.30;;
69203;SDS011;56317;27.658;85.326;2023-04-03T18:11:48;125.28;;;65.13;;
69203;SDS011;56317;27.658;85.326;2023-04-03T18:14:16;116.93;;;66.57;;
69203;SDS011;56317;27.658;85.326;2023-04-03T18:16:46;114.85;;;63.05;;
69203;SDS011;56317;27.658;85.326;2023-04-03T18:19:13;120.13;;;65.65;;
69203;SDS011;56317;27.658;85.326;2023-04-03T18:21:41;108.32;;;64.57;;
69203;SDS011;56317;27.658;85.326;2023-04-03T18:24:11;134.77;;;66.00;;
69203;SDS011;56317;27.658;85.326;2023-04-03T18:26:40;118.85;;;62.20;;
69203;SDS011;56317;27.658;85.326;2023-04-03T18:29:11;109.85;;;63.25;;
69203;SDS011;56317;27.658;85.326;2023-04-03T18:31:40;110.63;;;60.45;;
69203;SDS011;56317;27.658;85.326;2023-04-03T18:34:12;122.03;;;61.65;;
69203;SDS011;56317;27.658;85.326;2023-04-03T18:36:40;118.20;;;62.35;;
69203;SDS011;56317;27.658;85.326;2023-04-03T18:39:07;111.50;;;62.08;;
69203;SDS011;56317;27.658;85.326;2023-04-03T18:41:34;116.03;;;62.95;;
69203;SDS011;56317;27.658;85.326;2023-04-03T18:44:03;99.82;;;60.55;;
69203;SDS011;56317;27.658;85.326;2023-04-03T18:46:33;113.72;;;64.00;;
69203;SDS011;56317;27.658;85.326;2023-04-03T18:49:01;121.90;;;63.50;;
69203;SDS011;56317;27.658;85.326;2023-04-03T18:51:28;117.40;;;63.40;;
69203;SDS011;56317;27.658;85.326;2023-04-03T18:53:56;135.68;;;68.30;;
69203;SDS011;56317;27.658;85.326;2023-04-03T18:56:23;118.15;;;67.05;;
69203;SDS011;56317;27.658;85.326;2023-04-03T18:58:51;148.85;;;90.00;;
69203;SDS011;56317;27.658;85.326;2023-04-03T19:01:18;218.85;;;155.02;;
69203;SDS011;56317;27.658;85.326;2023-04-03T19:03:45;299.02;;;251.23;;
69203;SDS011;56317;27.658;85.326;2023-04-03T19:06:13;335.65;;;259.88;;
69203;SDS011;56317;27.658;85.326;2023-04-03T19:08:40;144.40;;;90.65;;